TimeCST,TemperatureF,Dew PointF,Humidity,Sea Level PressureIn,VisibilityMPH,Wind Direction,Wind SpeedMPH,Gust SpeedMPH,PrecipitationIn,Events,Conditions,WindDirDegrees,DateUTC
12:56 AM,55.9,48.0,75,30.12,10.0,North,6.9,-,N/A,,Clear,350,2012-11-24 06:56:00
1:56 AM,54.0,46.9,77,30.12,10.0,NNW,9.2,-,N/A,,Clear,340,2012-11-24 07:56:00
2:56 AM,51.1,43.0,74,30.13,10.0,North,8.1,-,N/A,,Clear,350,2012-11-24 08:56:00
3:56 AM,48.9,42.1,77,30.13,10.0,NNW,4.6,-,N/A,,Clear,340,2012-11-24 09:56:00
4:56 AM,46.9,39.9,77,30.16,10.0,NNW,6.9,-,N/A,,Clear,340,2012-11-24 10:56:00
5:56 AM,44.1,39.0,82,30.19,10.0,NNW,4.6,-,N/A,,Clear,330,2012-11-24 11:56:00
6:56 AM,44.1,37.9,79,30.20,10.0,North,4.6,-,N/A,,Clear,350,2012-11-24 12:56:00
7:56 AM,46.9,37.9,71,30.22,10.0,Variable,5.8,-,N/A,,Clear,0,2012-11-24 13:56:00
8:56 AM,50.0,37.0,61,30.22,10.0,North,5.8,-,N/A,,Clear,360,2012-11-24 14:56:00
9:56 AM,54.0,36.0,51,30.22,10.0,North,5.8,-,N/A,,Clear,10,2012-11-24 15:56:00
10:56 AM,55.9,32.0,40,30.19,10.0,North,10.4,19.6,N/A,,Clear,350,2012-11-24 16:56:00
11:56 AM,59.0,30.9,35,30.15,10.0,NNE,8.1,16.1,N/A,,Clear,20,2012-11-24 17:56:00
12:56 PM,61.0,30.9,32,30.13,10.0,NNW,11.5,16.1,N/A,,Clear,340,2012-11-24 18:56:00
1:56 PM,61.0,30.0,31,30.12,10.0,NNW,8.1,-,N/A,,Clear,340,2012-11-24 19:56:00
2:56 PM,61.0,28.0,29,30.12,10.0,North,6.9,16.1,N/A,,Clear,360,2012-11-24 20:56:00
3:56 PM,59.0,30.0,33,30.12,10.0,NNW,8.1,-,0.00,,Clear,340,2012-11-24 21:56:00
4:56 PM,53.1,32.0,45,30.13,10.0,NW,4.6,-,N/A,,Clear,320,2012-11-24 22:56:00
5:56 PM,48.9,30.0,48,30.15,10.0,NNW,3.5,-,N/A,,Clear,340,2012-11-24 23:56:00
6:56 PM,46.9,28.9,50,30.15,10.0,North,4.6,-,N/A,,Clear,350,2012-11-25 00:56:00
7:56 PM,48.0,27.0,44,30.15,10.0,North,9.2,-,N/A,,Clear,360,2012-11-25 01:56:00
8:56 PM,44.1,28.0,53,30.16,10.0,North,5.8,-,N/A,,Clear,350,2012-11-25 02:56:00
9:56 PM,43.0,27.0,53,30.15,10.0,North,4.6,-,N/A,,Clear,10,2012-11-25 03:56:00
10:56 PM,41.0,27.0,57,30.14,10.0,North,3.5,-,N/A,,Clear,10,2012-11-25 04:56:00
11:56 PM,41.0,27.0,57,30.13,10.0,North,3.5,-,N/A,,Clear,360,2012-11-25 05:56:00